Terminal Aerodrome Forecast
Issued by NWS Jacksonville, FL

Home | Current Version | Previous Version | Text Only | Print | Product List | Glossary On
Versions: 1 2 3 4 5 6 7 8 9 10 11 12 13 14 15 16 17
000
FTUS42 KJAX 040301 AAA
TAFSSI
TAF AMD
KSSI 040301Z 0403/0424 18011G17KT P6SM FEW050 SCT250
     FM040600 22008KT P6SM SCT080 SCT250
     FM041500 24007KT P6SM SCT040 SCT250
     FM041900 15009KT P6SM VCTS SCT050CB BKN250=

USA.gov is the U.S. government's official web portal to all federal, state and local government web resources and services.